createdAt,value
2018-11-21T00:00:23.213Z,1.70
2018-11-21T00:02:51.282Z,1.70
2018-11-21T00:05:19.779Z,1.80
2018-11-21T00:07:47.888Z,1.70
2018-11-21T00:10:16.002Z,1.70
2018-11-21T00:12:47.222Z,1.70
2018-11-21T00:15:15.363Z,1.70
2018-11-21T00:17:43.449Z,1.60
2018-11-21T00:20:11.570Z,1.70
2018-11-21T00:22:40.300Z,1.80
2018-11-21T00:25:08.627Z,1.80
2018-11-21T00:27:36.976Z,1.80
2018-11-21T00:30:07.990Z,1.80
2018-11-21T00:32:36.053Z,1.70
2018-11-21T00:35:05.315Z,1.70
2018-11-21T00:37:37.781Z,1.70
2018-11-21T00:40:10.642Z,1.70
2018-11-21T00:42:39.018Z,1.80
2018-11-21T00:45:08.063Z,1.80
2018-11-21T00:47:36.127Z,1.90
2018-11-21T00:50:04.720Z,1.80
2018-11-21T00:52:33.069Z,1.70
2018-11-21T00:55:01.171Z,1.70
2018-11-21T00:57:29.497Z,1.70
2018-11-21T00:59:58.154Z,1.70
2018-11-21T01:02:26.242Z,1.70
2018-11-21T01:04:54.457Z,1.70
2018-11-21T01:07:22.863Z,1.70
2018-11-21T01:09:50.952Z,1.70
2018-11-21T01:12:19.082Z,1.80
2018-11-21T01:14:47.464Z,1.70
2018-11-21T01:17:15.837Z,1.70
2018-11-21T01:19:43.935Z,1.70
2018-11-21T01:22:12.024Z,1.60
2018-11-21T01:24:40.149Z,1.60
2018-11-21T01:27:09.049Z,1.70
2018-11-21T01:29:37.160Z,1.70
2018-11-21T01:32:05.236Z,1.70
2018-11-21T01:34:33.339Z,1.70
2018-11-21T01:37:01.414Z,1.60
2018-11-21T01:39:29.816Z,1.60
2018-11-21T01:41:57.894Z,1.60
2018-11-21T01:44:26.269Z,1.60
2018-11-21T01:46:54.342Z,1.70
2018-11-21T01:49:22.439Z,1.70
2018-11-21T01:51:50.498Z,1.70
2018-11-21T01:54:18.569Z,1.70
2018-11-21T01:56:46.669Z,1.70
2018-11-21T01:59:14.866Z,1.70
2018-11-21T02:01:42.957Z,1.70
2018-11-21T02:04:11.046Z,1.70
2018-11-21T02:06:39.552Z,1.70
2018-11-21T02:09:09.357Z,1.70
2018-11-21T02:11:37.515Z,1.70
2018-11-21T02:14:05.872Z,1.70
2018-11-21T02:16:33.958Z,1.70
2018-11-21T02:19:02.111Z,1.70
2018-11-21T02:21:31.169Z,1.70
2018-11-21T02:23:59.303Z,1.70
2018-11-21T02:26:27.628Z,1.60
2018-11-21T02:28:55.734Z,1.60
2018-11-21T02:31:24.154Z,1.70
2018-11-21T02:33:52.230Z,1.60
2018-11-21T02:36:20.326Z,1.70
2018-11-21T02:38:48.417Z,1.70
2018-11-21T02:41:16.507Z,1.70
2018-11-21T02:43:44.574Z,1.70
2018-11-21T02:46:12.663Z,1.70
2018-11-21T02:48:40.789Z,1.70
2018-11-21T02:51:08.891Z,1.70
2018-11-21T02:53:37.062Z,1.70
2018-11-21T02:56:05.189Z,1.70
2018-11-21T02:58:33.515Z,1.70
2018-11-21T03:01:01.907Z,1.70
2018-11-21T03:03:30.905Z,1.60
2018-11-21T03:05:59.062Z,1.60
2018-11-21T03:08:28.526Z,1.70
2018-11-21T03:10:56.600Z,1.60
2018-11-21T03:13:28.346Z,1.60
2018-11-21T03:15:52.816Z,1.50
2018-11-21T03:18:20.888Z,1.60
2018-11-21T03:20:48.949Z,1.70
2018-11-21T03:23:17.027Z,1.70
2018-11-21T03:25:45.102Z,1.80
2018-11-21T03:28:13.466Z,1.70
2018-11-21T03:30:41.530Z,1.70
2018-11-21T03:33:09.611Z,1.70
2018-11-21T03:35:38.152Z,1.70
2018-11-21T03:38:06.205Z,1.70
2018-11-21T03:40:34.338Z,1.70
2018-11-21T03:43:02.453Z,1.70
2018-11-21T03:45:30.583Z,1.70
2018-11-21T03:47:58.723Z,1.70
2018-11-21T03:50:26.929Z,1.60
2018-11-21T03:52:55.350Z,1.60
2018-11-21T03:55:23.604Z,1.60
2018-11-21T03:57:51.815Z,1.70
2018-11-21T04:00:19.994Z,1.80
2018-11-21T04:02:48.334Z,1.70
2018-11-21T04:05:16.698Z,1.70
2018-11-21T04:07:44.937Z,1.60
2018-11-21T04:10:13.901Z,1.60
2018-11-21T04:12:42.356Z,1.60
2018-11-21T04:15:12.323Z,1.70
2018-11-21T04:17:40.520Z,1.60
2018-11-21T04:20:08.959Z,1.60
2018-11-21T04:22:37.727Z,1.70
2018-11-21T04:25:07.533Z,1.70
2018-11-21T04:27:35.849Z,1.60
2018-11-21T04:30:04.705Z,1.70
2018-11-21T04:32:32.958Z,1.80
2018-11-21T04:35:01.277Z,1.70
2018-11-21T04:37:29.588Z,1.70
2018-11-21T04:39:57.794Z,1.70
2018-11-21T04:42:26.019Z,1.70
2018-11-21T04:44:54.406Z,1.70
2018-11-21T04:47:22.661Z,1.70
2018-11-21T04:49:51.032Z,1.80
2018-11-21T04:52:19.682Z,1.70
2018-11-21T04:54:48.861Z,1.70
2018-11-21T04:57:17.505Z,1.80
2018-11-21T04:59:48.618Z,1.80
2018-11-21T05:02:17.643Z,1.80
2018-11-21T05:04:46.045Z,1.80
2018-11-21T05:07:14.689Z,1.80
2018-11-21T05:09:43.425Z,1.80
2018-11-21T05:12:11.995Z,1.70
2018-11-21T05:14:40.215Z,1.70
2018-11-21T05:17:08.665Z,1.70
2018-11-21T05:19:37.259Z,1.80
2018-11-21T05:22:05.692Z,1.70
2018-11-21T05:24:34.261Z,1.70
2018-11-21T05:27:02.759Z,1.80
2018-11-21T05:29:31.724Z,1.90
2018-11-21T05:32:00.384Z,1.80
2018-11-21T05:34:28.579Z,1.80
2018-11-21T05:36:57.351Z,1.70
2018-11-21T05:39:26.250Z,1.70
2018-11-21T05:41:54.717Z,1.70
2018-11-21T05:44:23.126Z,1.70
2018-11-21T05:46:53.758Z,1.70
2018-11-21T05:49:20.613Z,1.80
2018-11-21T05:51:49.133Z,1.70
2018-11-21T05:54:17.703Z,1.70
2018-11-21T05:56:46.115Z,1.70
2018-11-21T05:59:14.635Z,1.80
2018-11-21T06:01:43.262Z,1.80
2018-11-21T06:04:11.420Z,1.80
2018-11-21T06:06:59.057Z,1.80
2018-11-21T06:09:27.244Z,1.70
2018-11-21T06:11:56.103Z,1.70
2018-11-21T06:14:24.360Z,1.60
2018-11-21T06:16:53.090Z,1.60
2018-11-21T06:19:21.229Z,1.60
2018-11-21T06:21:49.405Z,1.60
2018-11-21T06:24:18.169Z,1.60
2018-11-21T06:26:53.793Z,1.60
2018-11-21T06:29:22.550Z,1.60
2018-11-21T06:31:51.028Z,1.70
2018-11-21T06:34:20.317Z,1.50
2018-11-21T06:36:48.581Z,1.50
2018-11-21T06:39:18.196Z,1.60
2018-11-21T06:41:46.754Z,1.50
2018-11-21T06:44:15.034Z,1.40
2018-11-21T06:46:43.742Z,1.40
2018-11-21T06:49:13.595Z,1.40
2018-11-21T06:51:45.618Z,1.40
2018-11-21T06:54:14.504Z,1.50
2018-11-21T06:56:42.988Z,1.60
2018-11-21T06:59:11.595Z,1.60
2018-11-21T07:01:40.626Z,1.60
2018-11-21T07:04:09.055Z,1.50
2018-11-21T07:06:37.237Z,1.60
2018-11-21T07:09:09.308Z,1.50
2018-11-21T07:11:37.903Z,1.50
2018-11-21T07:14:07.422Z,1.40
2018-11-21T07:16:37.306Z,1.40
2018-11-21T07:19:11.898Z,1.50
2018-11-21T07:21:40.187Z,1.40
2018-11-21T07:24:08.852Z,1.40
2018-11-21T07:26:37.638Z,1.40
2018-11-21T07:29:06.269Z,1.40
2018-11-21T07:31:34.901Z,1.40
2018-11-21T07:34:03.315Z,1.40
2018-11-21T07:36:32.243Z,1.50
2018-11-21T07:39:00.385Z,1.40
2018-11-21T07:41:29.227Z,1.50
2018-11-21T07:43:57.680Z,1.60
2018-11-21T07:46:26.085Z,1.50
2018-11-21T07:48:54.316Z,1.60
2018-11-21T07:51:22.456Z,1.50
2018-11-21T07:53:50.526Z,1.50
2018-11-21T07:57:06.710Z,1.50
2018-11-21T07:59:34.821Z,1.50
2018-11-21T08:02:09.513Z,1.50
2018-11-21T08:05:00.025Z,1.50
2018-11-21T08:07:46.253Z,1.60
2018-11-21T08:10:33.228Z,1.70
2018-11-21T08:13:24.704Z,1.60
2018-11-21T08:16:24.642Z,1.60
2018-11-21T08:19:05.020Z,1.60
2018-11-21T08:22:07.571Z,1.60
2018-11-21T08:24:53.461Z,1.70
2018-11-21T08:27:40.726Z,1.70
2018-11-21T08:30:09.365Z,1.60
2018-11-21T08:32:38.754Z,1.60
2018-11-21T08:35:07.977Z,1.60
2018-11-21T08:37:36.741Z,1.50
2018-11-21T08:40:06.270Z,1.60
2018-11-21T08:42:34.870Z,1.60
2018-11-21T08:45:03.328Z,1.80
2018-11-21T08:47:31.597Z,1.80
2018-11-21T08:49:59.858Z,1.80
2018-11-21T08:52:28.273Z,1.80
2018-11-21T08:54:56.319Z,1.90
2018-11-21T08:57:24.485Z,1.80
2018-11-21T08:59:52.937Z,2.00
2018-11-21T09:02:23.610Z,1.90
2018-11-21T09:04:52.436Z,1.80
2018-11-21T09:07:20.843Z,1.80
2018-11-21T09:09:49.155Z,1.90
2018-11-21T09:12:17.760Z,1.90
2018-11-21T09:14:46.706Z,1.90
2018-11-21T09:17:15.057Z,1.90
2018-11-21T09:19:43.580Z,1.90
2018-11-21T09:22:12.141Z,1.90
2018-11-21T09:24:40.540Z,2.00
2018-11-21T09:27:09.753Z,2.00
2018-11-21T09:29:38.447Z,2.00
2018-11-21T09:32:06.705Z,2.00
2018-11-21T09:34:35.142Z,2.10
2018-11-21T09:37:03.599Z,2.10
2018-11-21T09:39:32.576Z,2.00
2018-11-21T09:42:00.972Z,2.20
2018-11-21T09:44:29.439Z,2.10
2018-11-21T09:46:58.025Z,2.20
2018-11-21T09:49:26.380Z,2.10
2018-11-21T09:51:54.715Z,2.10
2018-11-21T09:54:23.332Z,2.10
2018-11-21T09:56:51.518Z,2.00
2018-11-21T09:59:19.895Z,2.00
2018-11-21T10:02:25.113Z,2.00
2018-11-21T10:04:53.294Z,2.00
2018-11-21T10:07:21.898Z,2.00
2018-11-21T10:09:51.287Z,2.10
2018-11-21T10:12:27.203Z,2.10
2018-11-21T10:14:55.739Z,2.10
2018-11-21T10:17:24.401Z,2.20
2018-11-21T10:19:52.848Z,2.40
2018-11-21T10:22:21.620Z,2.30
2018-11-21T10:24:49.767Z,2.20
2018-11-21T10:27:18.562Z,2.20
2018-11-21T10:29:47.174Z,2.30
2018-11-21T10:32:15.269Z,2.20
2018-11-21T10:34:43.481Z,2.30
2018-11-21T10:37:11.526Z,2.20
2018-11-21T10:39:39.600Z,2.30
2018-11-21T10:42:07.733Z,2.40
2018-11-21T10:44:35.769Z,2.30
2018-11-21T10:47:04.148Z,2.30
2018-11-21T10:49:32.526Z,2.30
2018-11-21T10:52:00.630Z,2.30
2018-11-21T10:54:28.957Z,2.30
2018-11-21T10:56:57.154Z,2.20
2018-11-21T10:59:25.394Z,2.20
2018-11-21T11:02:11.269Z,2.20
2018-11-21T11:04:54.559Z,2.10
2018-11-21T11:07:41.098Z,2.20
2018-11-21T11:10:31.196Z,2.30
2018-11-21T11:13:21.840Z,2.20
2018-11-21T11:16:07.806Z,2.30
2018-11-21T11:18:55.327Z,2.70
2018-11-21T11:21:43.254Z,2.70
2018-11-21T11:24:30.129Z,2.50
2018-11-21T11:27:16.185Z,2.60
2018-11-21T11:30:26.490Z,2.60
2018-11-21T11:33:13.798Z,2.50
2018-11-21T11:36:13.577Z,2.50
2018-11-21T11:39:13.283Z,2.50
2018-11-21T11:42:01.177Z,2.50
2018-11-21T11:44:51.821Z,2.40
2018-11-21T11:47:33.861Z,2.40
2018-11-21T11:50:10.284Z,2.30
2018-11-21T11:52:51.700Z,2.30
2018-11-21T11:55:41.739Z,2.30
2018-11-21T11:58:24.387Z,2.30
2018-11-21T12:01:10.568Z,2.30
2018-11-21T12:03:57.873Z,2.40
2018-11-21T12:06:38.572Z,2.30
2018-11-21T12:09:26.182Z,2.40
2018-11-21T12:12:25.601Z,2.40
2018-11-21T12:15:24.454Z,2.50
2018-11-21T12:18:30.287Z,2.50
2018-11-21T12:21:16.784Z,2.60
2018-11-21T12:24:04.336Z,2.50
2018-11-21T12:26:51.922Z,2.60
2018-11-21T12:29:37.822Z,2.60
2018-11-21T12:32:24.261Z,2.50
2018-11-21T12:35:06.313Z,2.50
2018-11-21T12:38:09.303Z,2.50
2018-11-21T12:40:44.849Z,2.50
2018-11-21T12:43:34.231Z,2.40
2018-11-21T12:46:24.512Z,2.50
2018-11-21T12:49:05.806Z,2.40
2018-11-21T12:51:45.549Z,2.40
2018-11-21T12:54:28.852Z,2.40
2018-11-21T12:57:14.923Z,2.50
2018-11-21T13:00:07.773Z,2.50
2018-11-21T13:02:48.134Z,2.30
2018-11-21T13:05:24.802Z,2.20
2018-11-21T13:08:18.261Z,2.30
2018-11-21T13:11:02.185Z,2.30
2018-11-21T13:13:48.121Z,2.30
2018-11-21T13:16:38.076Z,2.20
2018-11-21T13:19:37.599Z,2.10
2018-11-21T13:22:21.505Z,2.20
2018-11-21T13:25:07.408Z,2.10
2018-11-21T13:27:53.470Z,2.00
2018-11-21T13:30:46.948Z,1.90
2018-11-21T13:33:37.044Z,1.90
2018-11-21T13:36:10.233Z,1.90
2018-11-21T13:38:56.398Z,1.90
2018-11-21T13:41:42.359Z,2.00
2018-11-21T13:44:28.292Z,2.20
2018-11-21T13:47:15.884Z,2.10
2018-11-21T13:50:02.278Z,2.00
2018-11-21T13:52:48.555Z,2.00
2018-11-21T13:55:16.902Z,2.10
2018-11-21T13:57:45.017Z,2.00
2018-11-21T14:00:13.100Z,2.00
2018-11-21T14:02:41.751Z,1.90
2018-11-21T14:05:11.009Z,2.00
2018-11-21T14:07:39.124Z,2.00
2018-11-21T14:10:09.462Z,2.00
2018-11-21T14:12:37.767Z,2.00
2018-11-21T14:15:07.365Z,1.90
2018-11-21T14:17:35.461Z,1.90
2018-11-21T14:20:03.964Z,1.90
2018-11-21T14:22:32.052Z,1.90
2018-11-21T14:25:00.193Z,1.90
2018-11-21T14:27:28.857Z,2.00
2018-11-21T14:29:57.203Z,1.90
2018-11-21T14:32:25.438Z,1.90
2018-11-21T14:34:53.843Z,1.90
2018-11-21T14:37:22.026Z,1.90
2018-11-21T14:39:50.541Z,1.90
2018-11-21T14:42:18.796Z,1.90
2018-11-21T14:44:46.968Z,1.90
2018-11-21T14:47:15.895Z,1.90
2018-11-21T14:49:47.229Z,2.10
2018-11-21T14:52:15.478Z,2.20
2018-11-21T14:54:43.606Z,2.20
2018-11-21T14:57:12.016Z,2.10
2018-11-21T14:59:40.123Z,2.00
2018-11-21T15:02:08.369Z,2.20
2018-11-21T15:04:36.429Z,2.00
2018-11-21T15:07:04.662Z,2.00
2018-11-21T15:09:33.060Z,1.90
2018-11-21T15:12:01.166Z,1.90
2018-11-21T15:14:29.490Z,2.00
2018-11-21T15:16:57.628Z,2.00
2018-11-21T15:19:25.765Z,2.00
2018-11-21T15:21:54.129Z,2.00
2018-11-21T15:24:22.252Z,2.00
2018-11-21T15:26:50.794Z,2.00
2018-11-21T15:29:19.045Z,2.00
2018-11-21T15:31:47.420Z,2.00
2018-11-21T15:34:15.524Z,2.00
2018-11-21T15:36:43.606Z,1.90
2018-11-21T15:39:12.355Z,1.90
2018-11-21T15:41:40.805Z,1.90
2018-11-21T15:44:08.995Z,1.90
2018-11-21T15:46:37.111Z,1.90
2018-11-21T15:49:05.479Z,2.00
2018-11-21T15:51:33.596Z,2.00
2018-11-21T15:54:02.130Z,2.00
2018-11-21T15:56:30.302Z,1.90
2018-11-21T15:58:58.809Z,1.90
2018-11-21T16:01:26.988Z,2.00
2018-11-21T16:03:55.398Z,2.00
2018-11-21T16:06:23.594Z,2.00
2018-11-21T16:08:51.691Z,2.00
2018-11-21T16:11:19.775Z,2.00
2018-11-21T16:13:47.902Z,2.00
2018-11-21T16:16:16.064Z,1.90
2018-11-21T16:18:44.467Z,1.90
2018-11-21T16:21:12.578Z,1.90
2018-11-21T16:23:40.721Z,1.90
2018-11-21T16:26:08.840Z,2.00
2018-11-21T16:28:36.933Z,2.00
2018-11-21T16:31:05.682Z,2.00
2018-11-21T16:33:34.273Z,2.10
2018-11-21T16:36:02.391Z,2.20
2018-11-21T16:38:30.514Z,2.10
2018-11-21T16:40:58.831Z,2.00
2018-11-21T16:43:26.951Z,2.00
2018-11-21T16:45:56.728Z,2.10
2018-11-21T16:48:25.286Z,2.00
2018-11-21T16:50:53.465Z,2.00
2018-11-21T16:53:21.947Z,2.00
2018-11-21T16:55:50.072Z,2.00
2018-11-21T16:58:18.208Z,2.00
2018-11-21T17:00:46.332Z,2.00
2018-11-21T17:03:14.409Z,2.10
2018-11-21T17:05:42.527Z,2.10
2018-11-21T17:08:10.907Z,2.00
2018-11-21T17:10:38.981Z,1.90
2018-11-21T17:13:07.102Z,2.00
2018-11-21T17:15:35.837Z,2.10
2018-11-21T17:18:03.918Z,2.10
2018-11-21T17:20:34.142Z,2.10
2018-11-21T17:23:02.563Z,2.00
2018-11-21T17:25:36.082Z,2.00
2018-11-21T17:28:04.515Z,2.00
2018-11-21T17:30:32.696Z,1.90
2018-11-21T17:33:00.826Z,2.00
2018-11-21T17:35:28.936Z,2.00
2018-11-21T17:38:01.931Z,2.00
2018-11-21T17:40:28.610Z,2.00
2018-11-21T17:42:57.314Z,2.00
2018-11-21T17:45:25.484Z,2.00
2018-11-21T17:47:53.946Z,2.00
2018-11-21T17:50:23.270Z,2.00
2018-11-21T17:52:52.817Z,2.00
2018-11-21T17:57:51.135Z,2.00
2018-11-21T18:00:20.629Z,2.10
2018-11-21T18:02:49.160Z,2.10
2018-11-21T18:05:18.953Z,2.00
2018-11-21T18:07:47.157Z,2.00
2018-11-21T18:10:16.748Z,2.00
2018-11-21T18:12:45.524Z,2.00
2018-11-21T18:15:14.531Z,2.00
2018-11-21T18:17:43.633Z,2.00
2018-11-21T18:20:12.547Z,2.00
2018-11-21T18:22:41.247Z,2.00
2018-11-21T18:25:11.843Z,2.00
2018-11-21T18:27:40.447Z,1.90
2018-11-21T18:30:14.094Z,1.90
2018-11-21T18:32:43.287Z,1.90
2018-11-21T18:35:13.111Z,2.00
2018-11-21T18:37:41.302Z,2.00
2018-11-21T18:40:11.869Z,2.00
2018-11-21T18:42:40.162Z,2.00
2018-11-21T18:45:10.972Z,2.00
2018-11-21T18:47:39.256Z,2.00
2018-11-21T18:50:11.140Z,2.10
2018-11-21T18:52:37.763Z,2.10
2018-11-21T18:55:08.839Z,2.00
2018-11-21T18:58:16.332Z,2.00
2018-11-21T19:00:47.486Z,2.10
2018-11-21T19:03:16.744Z,2.00
2018-11-21T19:05:43.852Z,2.00
2018-11-21T19:08:11.991Z,2.00
2018-11-21T19:10:40.513Z,1.90
2018-11-21T19:13:08.918Z,1.90
2018-11-21T19:15:37.419Z,2.00
2018-11-21T19:18:06.404Z,2.00
2018-11-21T19:20:35.320Z,2.00
2018-11-21T19:23:03.603Z,2.00
2018-11-21T19:25:32.029Z,2.00
2018-11-21T19:28:00.545Z,2.00
2018-11-21T19:30:28.786Z,2.00
2018-11-21T19:32:56.871Z,2.00
2018-11-21T19:35:25.399Z,2.00
2018-11-21T19:37:53.551Z,2.00
2018-11-21T19:40:21.778Z,2.00
2018-11-21T19:42:49.999Z,2.00
2018-11-21T19:45:18.208Z,2.10
2018-11-21T19:47:46.764Z,2.10
2018-11-21T19:50:16.418Z,2.00
2018-11-21T19:52:45.790Z,1.90
2018-11-21T19:55:16.027Z,1.90
2018-11-21T19:57:44.764Z,1.90
2018-11-21T20:00:15.853Z,2.00
2018-11-21T20:02:44.195Z,2.00
2018-11-21T20:05:12.610Z,2.00
2018-11-21T20:07:41.330Z,2.00
2018-11-21T20:10:10.562Z,2.00
2018-11-21T20:12:40.044Z,2.00
2018-11-21T20:15:10.169Z,2.10
2018-11-21T20:17:38.289Z,2.00
2018-11-21T20:20:09.093Z,2.00
2018-11-21T20:22:39.191Z,2.00
2018-11-21T20:25:09.348Z,1.90
2018-11-21T20:27:37.552Z,1.90
2018-11-21T20:30:09.301Z,2.00
2018-11-21T20:32:37.540Z,2.00
2018-11-21T20:35:07.945Z,1.90
2018-11-21T20:37:34.792Z,1.90
2018-11-21T20:40:03.296Z,1.90
2018-11-21T20:42:31.940Z,1.80
2018-11-21T20:45:00.444Z,1.90
2018-11-21T20:47:28.921Z,1.90
2018-11-21T20:49:57.294Z,2.00
2018-11-21T20:52:25.661Z,2.00
2018-11-21T20:54:54.155Z,2.00
2018-11-21T20:57:22.781Z,1.90
2018-11-21T20:59:51.360Z,1.90
2018-11-21T21:02:19.702Z,2.00
2018-11-21T21:04:48.073Z,2.00
2018-11-21T21:07:22.318Z,1.90
2018-11-21T21:09:45.865Z,1.90
2018-11-21T21:12:14.354Z,1.80
2018-11-21T21:14:42.862Z,1.80
2018-11-21T21:17:11.408Z,1.80
2018-11-21T21:19:39.727Z,1.80
2018-11-21T21:22:08.278Z,1.90
2018-11-21T21:24:36.850Z,1.80
2018-11-21T21:27:05.613Z,1.70
2018-11-21T21:29:33.747Z,1.80
2018-11-21T21:32:02.010Z,1.80
2018-11-21T21:34:30.245Z,1.80
2018-11-21T21:36:58.418Z,1.80
2018-11-21T21:39:26.613Z,1.80
2018-11-21T21:41:54.763Z,1.80
2018-11-21T21:44:22.982Z,1.80
2018-11-21T21:46:51.351Z,1.70
2018-11-21T21:49:19.851Z,1.70
2018-11-21T21:51:48.350Z,1.70
2018-11-21T21:54:16.733Z,1.70
2018-11-21T21:56:45.220Z,1.70
2018-11-21T21:59:13.781Z,1.70
2018-11-21T22:01:42.055Z,1.70
2018-11-21T22:04:10.248Z,1.80
2018-11-21T22:06:38.397Z,2.30
2018-11-21T22:09:09.392Z,2.70
